Terminal Aerodrome Forecast
Issued by NWS

Home | Current Version | Previous Version | Text Only | Print | Product List | Glossary On
Versions: 1 2 3 4 5 6 7 8 9 10 11 12 13 14 15 16 17 18 19 20 21 22 23 24
000
FTUS43 KJKL 230100 AAD
TAFSJS
TAF AMD
KSJS 230114Z 2301/2324 20003KT 5SM +RA VCTS SCT003 BKN035CB OVC070
     FM230600 VRB03KT P6SM VCSH SCT020 BKN100
     FM231600 VRB05KT P6SM SHRA VCTS SCT030CB BKN100=

USA.gov is the U.S. government's official web portal to all federal, state and local government web resources and services.